sensor_id;sensor_type;location;lat;lon;timestamp;temperature;humidity
3492;DHT22;1760;52.480;13.422;2023-07-20T00:01:35;18.00;99.90
3492;DHT22;1760;52.480;13.422;2023-07-20T00:04:03;18.10;99.90
3492;DHT22;1760;52.480;13.422;2023-07-20T00:06:32;18.20;99.90
3492;DHT22;1760;52.480;13.422;2023-07-20T00:08:59;18.10;99.90
3492;DHT22;1760;52.480;13.422;2023-07-20T00:11:27;18.00;99.90
3492;DHT22;1760;52.480;13.422;2023-07-20T00:16:21;18.20;99.90
3492;DHT22;1760;52.480;13.422;2023-07-20T00:18:49;18.30;99.90
3492;DHT22;1760;52.480;13.422;2023-07-20T00:21:16;18.30;99.90
3492;DHT22;1760;52.480;13.422;2023-07-20T00:23:43;18.20;99.90
3492;DHT22;1760;52.480;13.422;2023-07-20T00:28:37;17.90;99.90
3492;DHT22;1760;52.480;13.422;2023-07-20T00:33:31;17.50;99.90
3492;DHT22;1760;52.480;13.422;2023-07-20T00:35:59;17.70;99.90
3492;DHT22;1760;52.480;13.422;2023-07-20T00:38:26;17.70;99.90
3492;DHT22;1760;52.480;13.422;2023-07-20T00:40:53;17.60;99.90
3492;DHT22;1760;52.480;13.422;2023-07-20T00:43:20;17.60;99.90
3492;DHT22;1760;52.480;13.422;2023-07-20T00:53:10;17.40;99.90
3492;DHT22;1760;52.480;13.422;2023-07-20T00:55:37;17.50;99.90
3492;DHT22;1760;52.480;13.422;2023-07-20T00:58:04;17.90;99.90
3492;DHT22;1760;52.480;13.422;2023-07-20T01:05:36;17.00;99.90
3492;DHT22;1760;52.480;13.422;2023-07-20T01:08:09;17.40;99.90
3492;DHT22;1760;52.480;13.422;2023-07-20T01:10:43;17.20;99.90
3492;DHT22;1760;52.480;13.422;2023-07-20T01:13:14;17.20;99.90
3492;DHT22;1760;52.480;13.422;2023-07-20T01:15:41;17.20;99.90
3492;DHT22;1760;52.480;13.422;2023-07-20T01:18:08;17.60;99.90
3492;DHT22;1760;52.480;13.422;2023-07-20T01:20:36;17.00;99.90
3492;DHT22;1760;52.480;13.422;2023-07-20T01:23:30;17.20;99.90
3492;DHT22;1760;52.480;13.422;2023-07-20T01:26:17;17.20;99.90
3492;DHT22;1760;52.480;13.422;2023-07-20T01:29:02;17.10;99.90
3492;DHT22;1760;52.480;13.422;2023-07-20T01:31:34;17.50;99.90
3492;DHT22;1760;52.480;13.422;2023-07-20T01:34:03;17.70;99.90
3492;DHT22;1760;52.480;13.422;2023-07-20T01:36:34;17.10;99.90
3492;DHT22;1760;52.480;13.422;2023-07-20T01:39:02;17.40;99.90
3492;DHT22;1760;52.480;13.422;2023-07-20T01:41:30;17.10;99.90
3492;DHT22;1760;52.480;13.422;2023-07-20T01:43:57;17.00;99.90
3492;DHT22;1760;52.480;13.422;2023-07-20T01:46:25;17.10;99.90
3492;DHT22;1760;52.480;13.422;2023-07-20T01:48:53;16.80;99.90
3492;DHT22;1760;52.480;13.422;2023-07-20T01:53:47;17.00;99.90
3492;DHT22;1760;52.480;13.422;2023-07-20T02:01:09;16.80;99.90
3492;DHT22;1760;52.480;13.422;2023-07-20T02:03:36;16.90;99.90
3492;DHT22;1760;52.480;13.422;2023-07-20T02:06:04;17.40;99.90
3492;DHT22;1760;52.480;13.422;2023-07-20T02:08:31;16.90;99.90
3492;DHT22;1760;52.480;13.422;2023-07-20T02:13:25;17.40;99.90
3492;DHT22;1760;52.480;13.422;2023-07-20T02:18:19;17.00;99.90
3492;DHT22;1760;52.480;13.422;2023-07-20T02:23:14;16.80;99.90
3492;DHT22;1760;52.480;13.422;2023-07-20T02:25:44;16.70;99.90
3492;DHT22;1760;52.480;13.422;2023-07-20T02:28:13;16.90;99.90
3492;DHT22;1760;52.480;13.422;2023-07-20T02:30:40;16.90;99.90
3492;DHT22;1760;52.480;13.422;2023-07-20T02:33:07;16.90;99.90
3492;DHT22;1760;52.480;13.422;2023-07-20T02:35:34;17.10;99.90
3492;DHT22;1760;52.480;13.422;2023-07-20T02:38:01;16.80;99.90
3492;DHT22;1760;52.480;13.422;2023-07-20T02:40:30;16.90;99.90
3492;DHT22;1760;52.480;13.422;2023-07-20T02:45:24;17.20;99.90
3492;DHT22;1760;52.480;13.422;2023-07-20T02:47:51;16.90;99.90
3492;DHT22;1760;52.480;13.422;2023-07-20T02:50:17;15.10;99.90
3492;DHT22;1760;52.480;13.422;2023-07-20T02:52:44;17.40;99.90
3492;DHT22;1760;52.480;13.422;2023-07-20T02:55:11;17.00;99.90
3492;DHT22;1760;52.480;13.422;2023-07-20T02:57:40;17.00;99.90
3492;DHT22;1760;52.480;13.422;2023-07-20T03:00:07;17.00;99.90
3492;DHT22;1760;52.480;13.422;2023-07-20T03:07:31;17.10;99.90
3492;DHT22;1760;52.480;13.422;2023-07-20T03:09:58;16.70;99.90
3492;DHT22;1760;52.480;13.422;2023-07-20T03:12:25;17.00;99.90
3492;DHT22;1760;52.480;13.422;2023-07-20T03:14:53;16.80;99.90
3492;DHT22;1760;52.480;13.422;2023-07-20T03:17:22;16.90;99.90
3492;DHT22;1760;52.480;13.422;2023-07-20T03:19:49;16.90;99.90
3492;DHT22;1760;52.480;13.422;2023-07-20T03:22:16;16.60;99.90
3492;DHT22;1760;52.480;13.422;2023-07-20T03:24:43;16.10;99.90
3492;DHT22;1760;52.480;13.422;2023-07-20T03:27:09;17.50;99.90
3492;DHT22;1760;52.480;13.422;2023-07-20T03:29:38;16.80;99.90
3492;DHT22;1760;52.480;13.422;2023-07-20T03:32:07;16.90;99.90
3492;DHT22;1760;52.480;13.422;2023-07-20T03:37:02;16.70;99.90
3492;DHT22;1760;52.480;13.422;2023-07-20T03:41:58;16.70;99.90
3492;DHT22;1760;52.480;13.422;2023-07-20T03:44:28;16.90;99.90
3492;DHT22;1760;52.480;13.422;2023-07-20T03:46:55;16.70;99.90
3492;DHT22;1760;52.480;13.422;2023-07-20T03:49:23;16.90;99.90
3492;DHT22;1760;52.480;13.422;2023-07-20T03:56:45;16.90;99.90
3492;DHT22;1760;52.480;13.422;2023-07-20T03:59:12;16.70;99.90
3492;DHT22;1760;52.480;13.422;2023-07-20T04:01:38;16.90;99.90
3492;DHT22;1760;52.480;13.422;2023-07-20T04:04:06;17.00;99.90
3492;DHT22;1760;52.480;13.422;2023-07-20T04:06:35;16.90;99.90
3492;DHT22;1760;52.480;13.422;2023-07-20T04:09:04;17.20;99.90
3492;DHT22;1760;52.480;13.422;2023-07-20T04:11:31;17.00;99.90
3492;DHT22;1760;52.480;13.422;2023-07-20T04:14:01;17.00;99.90
3492;DHT22;1760;52.480;13.422;2023-07-20T04:16:27;17.20;99.90
3492;DHT22;1760;52.480;13.422;2023-07-20T04:18:55;16.90;99.90
3492;DHT22;1760;52.480;13.422;2023-07-20T04:21:23;17.00;99.90
3492;DHT22;1760;52.480;13.422;2023-07-20T04:23:51;17.10;99.90
3492;DHT22;1760;52.480;13.422;2023-07-20T04:26:18;17.00;99.90
3492;DHT22;1760;52.480;13.422;2023-07-20T04:28:45;17.30;99.90
3492;DHT22;1760;52.480;13.422;2023-07-20T04:31:13;17.30;99.90
3492;DHT22;1760;52.480;13.422;2023-07-20T04:38:35;17.20;99.90
3492;DHT22;1760;52.480;13.422;2023-07-20T04:41:03;17.20;99.90
3492;DHT22;1760;52.480;13.422;2023-07-20T04:43:30;17.50;99.90
3492;DHT22;1760;52.480;13.422;2023-07-20T04:45:57;17.10;99.90
3492;DHT22;1760;52.480;13.422;2023-07-20T04:48:24;17.20;99.90
3492;DHT22;1760;52.480;13.422;2023-07-20T04:50:51;17.20;99.90
3492;DHT22;1760;52.480;13.422;2023-07-20T04:53:18;17.50;99.90
3492;DHT22;1760;52.480;13.422;2023-07-20T04:55:48;17.10;99.90
3492;DHT22;1760;52.480;13.422;2023-07-20T04:58:18;17.10;99.90
3492;DHT22;1760;52.480;13.422;2023-07-20T05:03:13;17.20;99.90
3492;DHT22;1760;52.480;13.422;2023-07-20T05:05:40;17.80;99.90
3492;DHT22;1760;52.480;13.422;2023-07-20T05:08:06;17.20;99.90
3492;DHT22;1760;52.480;13.422;2023-07-20T05:10:33;17.70;99.90
3492;DHT22;1760;52.480;13.422;2023-07-20T05:13:00;17.40;99.90
3492;DHT22;1760;52.480;13.422;2023-07-20T05:15:29;17.40;99.90
3492;DHT22;1760;52.480;13.422;2023-07-20T05:20:23;17.60;99.90
3492;DHT22;1760;52.480;13.422;2023-07-20T05:25:18;17.50;99.90
3492;DHT22;1760;52.480;13.422;2023-07-20T05:27:48;17.60;99.90
3492;DHT22;1760;52.480;13.422;2023-07-20T05:32:45;17.70;99.90
3492;DHT22;1760;52.480;13.422;2023-07-20T05:35:16;18.40;99.90
3492;DHT22;1760;52.480;13.422;2023-07-20T05:37:44;17.90;99.90
3492;DHT22;1760;52.480;13.422;2023-07-20T05:40:15;17.90;99.90
3492;DHT22;1760;52.480;13.422;2023-07-20T05:45:12;18.10;99.90
3492;DHT22;1760;52.480;13.422;2023-07-20T05:47:39;18.20;99.90
3492;DHT22;1760;52.480;13.422;2023-07-20T05:50:08;18.20;99.90
3492;DHT22;1760;52.480;13.422;2023-07-20T05:52:35;17.80;99.90
3492;DHT22;1760;52.480;13.422;2023-07-20T05:55:05;18.10;99.90
3492;DHT22;1760;52.480;13.422;2023-07-20T05:57:32;18.10;99.90
3492;DHT22;1760;52.480;13.422;2023-07-20T06:02:26;18.30;99.90
3492;DHT22;1760;52.480;13.422;2023-07-20T06:04:53;18.40;99.90
3492;DHT22;1760;52.480;13.422;2023-07-20T06:07:21;18.40;99.90
3492;DHT22;1760;52.480;13.422;2023-07-20T06:09:48;18.60;99.90
3492;DHT22;1760;52.480;13.422;2023-07-20T06:12:15;18.00;99.90
3492;DHT22;1760;52.480;13.422;2023-07-20T06:14:42;18.50;99.90
3492;DHT22;1760;52.480;13.422;2023-07-20T06:17:09;18.30;99.90
3492;DHT22;1760;52.480;13.422;2023-07-20T06:19:38;18.30;99.90
3492;DHT22;1760;52.480;13.422;2023-07-20T06:22:05;18.30;99.90
3492;DHT22;1760;52.480;13.422;2023-07-20T06:24:33;18.20;99.90
3492;DHT22;1760;52.480;13.422;2023-07-20T06:27:00;18.30;99.90
3492;DHT22;1760;52.480;13.422;2023-07-20T06:29:28;18.40;99.90
3492;DHT22;1760;52.480;13.422;2023-07-20T06:31:55;18.30;99.90
3492;DHT22;1760;52.480;13.422;2023-07-20T06:36:49;18.70;99.90
3492;DHT22;1760;52.480;13.422;2023-07-20T06:39:16;18.90;99.90
3492;DHT22;1760;52.480;13.422;2023-07-20T06:41:44;18.60;99.90
3492;DHT22;1760;52.480;13.422;2023-07-20T06:44:11;18.50;99.90
3492;DHT22;1760;52.480;13.422;2023-07-20T06:46:38;18.60;99.90
3492;DHT22;1760;52.480;13.422;2023-07-20T06:49:08;18.80;99.90
3492;DHT22;1760;52.480;13.422;2023-07-20T06:51:38;18.70;99.90
3492;DHT22;1760;52.480;13.422;2023-07-20T06:54:05;18.90;99.90
3492;DHT22;1760;52.480;13.422;2023-07-20T06:59:00;18.80;99.90
3492;DHT22;1760;52.480;13.422;2023-07-20T07:01:28;18.80;99.90
3492;DHT22;1760;52.480;13.422;2023-07-20T07:06:22;19.30;99.90
3492;DHT22;1760;52.480;13.422;2023-07-20T07:11:16;19.40;99.90
3492;DHT22;1760;52.480;13.422;2023-07-20T07:13:43;19.50;99.90
3492;DHT22;1760;52.480;13.422;2023-07-20T07:16:13;19.70;99.90
3492;DHT22;1760;52.480;13.422;2023-07-20T07:18:47;19.60;99.90
3492;DHT22;1760;52.480;13.422;2023-07-20T07:23:41;19.80;99.90
3492;DHT22;1760;52.480;13.422;2023-07-20T07:26:08;21.60;99.90
3492;DHT22;1760;52.480;13.422;2023-07-20T07:28:35;21.60;99.90
3492;DHT22;1760;52.480;13.422;2023-07-20T07:31:04;24.20;99.90
3492;DHT22;1760;52.480;13.422;2023-07-20T07:33:33;24.20;99.90
3492;DHT22;1760;52.480;13.422;2023-07-20T07:40:55;23.40;99.90
3492;DHT22;1760;52.480;13.422;2023-07-20T07:43:22;23.00;99.90
3492;DHT22;1760;52.480;13.422;2023-07-20T07:45:49;22.20;99.90
3492;DHT22;1760;52.480;13.422;2023-07-20T07:48:16;22.30;99.90
3492;DHT22;1760;52.480;13.422;2023-07-20T07:50:47;23.50;99.90
3492;DHT22;1760;52.480;13.422;2023-07-20T07:53:13;23.10;99.90
3492;DHT22;1760;52.480;13.422;2023-07-20T07:55:40;25.30;99.90
3492;DHT22;1760;52.480;13.422;2023-07-20T07:58:08;25.50;99.90
3492;DHT22;1760;52.480;13.422;2023-07-20T08:00:35;25.30;99.90
3492;DHT22;1760;52.480;13.422;2023-07-20T08:03:02;23.90;99.90
3492;DHT22;1760;52.480;13.422;2023-07-20T08:05:29;23.80;99.90
3492;DHT22;1760;52.480;13.422;2023-07-20T08:07:58;24.00;99.90
3492;DHT22;1760;52.480;13.422;2023-07-20T08:10:25;24.70;99.90
3492;DHT22;1760;52.480;13.422;2023-07-20T08:12:52;24.90;99.90
3492;DHT22;1760;52.480;13.422;2023-07-20T08:15:21;24.90;99.90
3492;DHT22;1760;52.480;13.422;2023-07-20T08:17:48;24.40;99.90
3492;DHT22;1760;52.480;13.422;2023-07-20T08:20:17;24.00;99.90
3492;DHT22;1760;52.480;13.422;2023-07-20T08:22:44;24.00;99.90
3492;DHT22;1760;52.480;13.422;2023-07-20T08:25:13;23.50;99.90
3492;DHT22;1760;52.480;13.422;2023-07-20T08:27:39;22.50;99.90
3492;DHT22;1760;52.480;13.422;2023-07-20T08:30:08;21.90;99.90
3492;DHT22;1760;52.480;13.422;2023-07-20T08:32:38;21.50;99.90
3492;DHT22;1760;52.480;13.422;2023-07-20T08:35:06;21.20;99.90
3492;DHT22;1760;52.480;13.422;2023-07-20T08:40:01;21.50;99.90
3492;DHT22;1760;52.480;13.422;2023-07-20T08:42:35;22.40;99.90
3492;DHT22;1760;52.480;13.422;2023-07-20T08:45:06;22.50;99.90
3492;DHT22;1760;52.480;13.422;2023-07-20T08:47:33;22.70;99.90
3492;DHT22;1760;52.480;13.422;2023-07-20T08:50:01;23.50;99.90
3492;DHT22;1760;52.480;13.422;2023-07-20T08:52:33;22.90;99.90
3492;DHT22;1760;52.480;13.422;2023-07-20T08:55:00;22.80;99.90
3492;DHT22;1760;52.480;13.422;2023-07-20T08:57:32;22.30;99.90
3492;DHT22;1760;52.480;13.422;2023-07-20T09:00:02;22.20;99.90
3492;DHT22;1760;52.480;13.422;2023-07-20T09:02:35;22.00;99.90
3492;DHT22;1760;52.480;13.422;2023-07-20T09:05:04;22.00;99.90
3492;DHT22;1760;52.480;13.422;2023-07-20T09:07:32;21.70;99.90
3492;DHT22;1760;52.480;13.422;2023-07-20T09:12:33;22.40;99.90
3492;DHT22;1760;52.480;13.422;2023-07-20T09:15:04;22.80;99.90
3492;DHT22;1760;52.480;13.422;2023-07-20T09:19:59;23.30;99.90
3492;DHT22;1760;52.480;13.422;2023-07-20T09:22:31;23.40;99.90
3492;DHT22;1760;52.480;13.422;2023-07-20T09:24:58;23.80;99.90
3492;DHT22;1760;52.480;13.422;2023-07-20T09:27:34;23.80;99.90
3492;DHT22;1760;52.480;13.422;2023-07-20T09:30:05;25.70;99.90
3492;DHT22;1760;52.480;13.422;2023-07-20T09:32:39;25.60;99.90
3492;DHT22;1760;52.480;13.422;2023-07-20T09:35:11;26.00;99.90
3492;DHT22;1760;52.480;13.422;2023-07-20T09:40:08;26.40;99.90
3492;DHT22;1760;52.480;13.422;2023-07-20T09:42:36;25.70;99.90
3492;DHT22;1760;52.480;13.422;2023-07-20T09:45:07;24.90;99.90
3492;DHT22;1760;52.480;13.422;2023-07-20T09:47:36;24.40;99.90
3492;DHT22;1760;52.480;13.422;2023-07-20T09:50:04;24.50;99.90
3492;DHT22;1760;52.480;13.422;2023-07-20T09:55:04;23.20;99.90
3492;DHT22;1760;52.480;13.422;2023-07-20T09:57:33;23.20;99.90
3492;DHT22;1760;52.480;13.422;2023-07-20T10:00:00;23.00;99.90
3492;DHT22;1760;52.480;13.422;2023-07-20T10:02:32;22.10;99.90
3492;DHT22;1760;52.480;13.422;2023-07-20T10:05:02;21.60;99.90
3492;DHT22;1760;52.480;13.422;2023-07-20T10:07:30;21.20;99.90
3492;DHT22;1760;52.480;13.422;2023-07-20T10:10:01;21.30;99.90
3492;DHT22;1760;52.480;13.422;2023-07-20T10:12:41;21.10;99.90
3492;DHT22;1760;52.480;13.422;2023-07-20T10:15:11;21.00;99.90
3492;DHT22;1760;52.480;13.422;2023-07-20T10:17:48;20.40;99.90
3492;DHT22;1760;52.480;13.422;2023-07-20T10:20:17;20.50;99.90
3492;DHT22;1760;52.480;13.422;2023-07-20T10:22:49;20.40;99.90
3492;DHT22;1760;52.480;13.422;2023-07-20T10:25:20;21.40;99.90
3492;DHT22;1760;52.480;13.422;2023-07-20T10:27:49;21.20;99.90
3492;DHT22;1760;52.480;13.422;2023-07-20T10:30:18;22.30;99.90
3492;DHT22;1760;52.480;13.422;2023-07-20T10:32:47;22.90;99.90
3492;DHT22;1760;52.480;13.422;2023-07-20T10:35:16;22.80;99.90
3492;DHT22;1760;52.480;13.422;2023-07-20T10:37:51;22.30;99.90
3492;DHT22;1760;52.480;13.422;2023-07-20T10:40:31;22.10;99.90
3492;DHT22;1760;52.480;13.422;2023-07-20T10:43:03;21.80;99.90
3492;DHT22;1760;52.480;13.422;2023-07-20T10:45:41;21.50;99.90
3492;DHT22;1760;52.480;13.422;2023-07-20T10:48:16;21.40;99.90
3492;DHT22;1760;52.480;13.422;2023-07-20T10:50:45;21.40;99.90
3492;DHT22;1760;52.480;13.422;2023-07-20T10:53:14;21.10;99.90
3492;DHT22;1760;52.480;13.422;2023-07-20T10:55:42;21.00;99.90
3492;DHT22;1760;52.480;13.422;2023-07-20T10:58:10;21.00;99.90
3492;DHT22;1760;52.480;13.422;2023-07-20T11:00:39;20.70;99.90
3492;DHT22;1760;52.480;13.422;2023-07-20T11:03:31;20.70;99.90
3492;DHT22;1760;52.480;13.422;2023-07-20T11:05:58;20.70;99.90
3492;DHT22;1760;52.480;13.422;2023-07-20T11:08:39;20.60;99.90
3492;DHT22;1760;52.480;13.422;2023-07-20T11:11:27;20.70;99.90
3492;DHT22;1760;52.480;13.422;2023-07-20T11:13:58;20.60;99.90
3492;DHT22;1760;52.480;13.422;2023-07-20T11:16:39;20.70;99.90
3492;DHT22;1760;52.480;13.422;2023-07-20T11:19:14;20.80;99.90
3492;DHT22;1760;52.480;13.422;2023-07-20T11:21:43;20.70;99.90
3492;DHT22;1760;52.480;13.422;2023-07-20T11:26:46;20.60;99.90
3492;DHT22;1760;52.480;13.422;2023-07-20T11:29:14;20.00;99.90
3492;DHT22;1760;52.480;13.422;2023-07-20T11:31:43;20.00;99.90
3492;DHT22;1760;52.480;13.422;2023-07-20T11:34:12;20.20;99.90
3492;DHT22;1760;52.480;13.422;2023-07-20T11:36:40;20.10;99.90
3492;DHT22;1760;52.480;13.422;2023-07-20T11:39:09;20.30;99.90
3492;DHT22;1760;52.480;13.422;2023-07-20T11:44:04;20.40;99.90
3492;DHT22;1760;52.480;13.422;2023-07-20T11:46:32;20.50;99.90
3492;DHT22;1760;52.480;13.422;2023-07-20T11:51:31;20.30;99.90
3492;DHT22;1760;52.480;13.422;2023-07-20T11:53:58;20.60;99.90
3492;DHT22;1760;52.480;13.422;2023-07-20T11:56:26;21.20;99.90
3492;DHT22;1760;52.480;13.422;2023-07-20T11:58:55;21.10;99.90
3492;DHT22;1760;52.480;13.422;2023-07-20T12:03:55;21.50;99.90
3492;DHT22;1760;52.480;13.422;2023-07-20T12:06:23;22.30;99.90
3492;DHT22;1760;52.480;13.422;2023-07-20T12:08:55;21.90;99.90
3492;DHT22;1760;52.480;13.422;2023-07-20T12:11:34;22.30;99.90
3492;DHT22;1760;52.480;13.422;2023-07-20T12:14:02;22.30;99.90
3492;DHT22;1760;52.480;13.422;2023-07-20T12:16:30;22.00;99.90
3492;DHT22;1760;52.480;13.422;2023-07-20T12:19:10;22.20;99.90
3492;DHT22;1760;52.480;13.422;2023-07-20T12:21:40;21.70;99.90
3492;DHT22;1760;52.480;13.422;2023-07-20T12:24:10;21.40;99.90
3492;DHT22;1760;52.480;13.422;2023-07-20T12:26:37;21.40;99.90
3492;DHT22;1760;52.480;13.422;2023-07-20T12:29:04;21.20;99.90
3492;DHT22;1760;52.480;13.422;2023-07-20T12:31:34;21.50;99.90
3492;DHT22;1760;52.480;13.422;2023-07-20T12:34:03;21.10;99.90
3492;DHT22;1760;52.480;13.422;2023-07-20T12:38:57;21.20;99.90
3492;DHT22;1760;52.480;13.422;2023-07-20T12:41:28;21.30;99.90
3492;DHT22;1760;52.480;13.422;2023-07-20T12:43:55;21.30;99.90
3492;DHT22;1760;52.480;13.422;2023-07-20T12:46:23;21.60;99.90
3492;DHT22;1760;52.480;13.422;2023-07-20T12:48:50;21.40;99.90
3492;DHT22;1760;52.480;13.422;2023-07-20T12:51:17;21.50;99.90
3492;DHT22;1760;52.480;13.422;2023-07-20T12:53:45;21.90;99.90
3492;DHT22;1760;52.480;13.422;2023-07-20T12:56:11;22.20;99.90
3492;DHT22;1760;52.480;13.422;2023-07-20T12:58:40;22.10;99.90
3492;DHT22;1760;52.480;13.422;2023-07-20T13:01:07;22.30;99.90
3492;DHT22;1760;52.480;13.422;2023-07-20T13:03:33;22.50;99.90
3492;DHT22;1760;52.480;13.422;2023-07-20T13:06:00;22.80;99.90
3492;DHT22;1760;52.480;13.422;2023-07-20T13:08:27;22.80;99.90
3492;DHT22;1760;52.480;13.422;2023-07-20T13:13:21;22.60;99.90
3492;DHT22;1760;52.480;13.422;2023-07-20T13:15:49;23.00;99.90
3492;DHT22;1760;52.480;13.422;2023-07-20T13:18:16;23.00;99.90
3492;DHT22;1760;52.480;13.422;2023-07-20T13:20:44;23.00;99.90
3492;DHT22;1760;52.480;13.422;2023-07-20T13:23:10;23.20;99.90
3492;DHT22;1760;52.480;13.422;2023-07-20T13:25:37;23.90;99.90
3492;DHT22;1760;52.480;13.422;2023-07-20T13:28:05;23.30;99.90
3492;DHT22;1760;52.480;13.422;2023-07-20T13:33:00;23.30;99.90
3492;DHT22;1760;52.480;13.422;2023-07-20T13:35:27;23.50;99.90
3492;DHT22;1760;52.480;13.422;2023-07-20T13:37:56;23.90;99.90
3492;DHT22;1760;52.480;13.422;2023-07-20T13:45:22;23.90;83.30
3492;DHT22;1760;52.480;13.422;2023-07-20T13:50:19;23.90;81.10
3492;DHT22;1760;52.480;13.422;2023-07-20T13:52:48;23.90;82.10
3492;DHT22;1760;52.480;13.422;2023-07-20T13:55:15;24.20;99.90
3492;DHT22;1760;52.480;13.422;2023-07-20T14:00:13;23.90;99.90
3492;DHT22;1760;52.480;13.422;2023-07-20T14:02:40;24.00;99.90
3492;DHT22;1760;52.480;13.422;2023-07-20T14:05:08;24.10;99.90
3492;DHT22;1760;52.480;13.422;2023-07-20T14:07:37;23.80;99.60
3492;DHT22;1760;52.480;13.422;2023-07-20T14:10:05;24.20;99.90
3492;DHT22;1760;52.480;13.422;2023-07-20T14:12:34;24.00;80.80
3492;DHT22;1760;52.480;13.422;2023-07-20T14:15:01;24.10;99.90
3492;DHT22;1760;52.480;13.422;2023-07-20T14:17:31;24.00;82.80
3492;DHT22;1760;52.480;13.422;2023-07-20T14:20:00;24.30;99.90
3492;DHT22;1760;52.480;13.422;2023-07-20T14:22:27;24.10;95.40
3492;DHT22;1760;52.480;13.422;2023-07-20T14:24:57;24.10;99.20
3492;DHT22;1760;52.480;13.422;2023-07-20T14:27:24;24.00;78.80
3492;DHT22;1760;52.480;13.422;2023-07-20T14:29:51;24.20;79.00
3492;DHT22;1760;52.480;13.422;2023-07-20T14:32:18;24.60;99.50
3492;DHT22;1760;52.480;13.422;2023-07-20T14:34:45;24.20;79.20
3492;DHT22;1760;52.480;13.422;2023-07-20T14:37:14;24.20;76.40
3492;DHT22;1760;52.480;13.422;2023-07-20T14:42:16;24.10;77.10
3492;DHT22;1760;52.480;13.422;2023-07-20T14:44:44;24.00;98.10
3492;DHT22;1760;52.480;13.422;2023-07-20T14:47:11;23.70;98.20
3492;DHT22;1760;52.480;13.422;2023-07-20T14:49:38;24.20;98.40
3492;DHT22;1760;52.480;13.422;2023-07-20T14:52:06;23.30;98.30
3492;DHT22;1760;52.480;13.422;2023-07-20T14:54:33;23.50;98.30
3492;DHT22;1760;52.480;13.422;2023-07-20T14:57:00;23.30;98.60
3492;DHT22;1760;52.480;13.422;2023-07-20T14:59:29;23.40;75.50
3492;DHT22;1760;52.480;13.422;2023-07-20T15:04:23;23.30;97.50
3492;DHT22;1760;52.480;13.422;2023-07-20T15:09:20;23.30;98.20
3492;DHT22;1760;52.480;13.422;2023-07-20T15:11:47;23.40;98.20
3492;DHT22;1760;52.480;13.422;2023-07-20T15:14:14;23.10;76.40
3492;DHT22;1760;52.480;13.422;2023-07-20T15:16:43;23.20;75.80
3492;DHT22;1760;52.480;13.422;2023-07-20T15:19:10;23.30;97.80
3492;DHT22;1760;52.480;13.422;2023-07-20T15:21:39;24.00;97.00
3492;DHT22;1760;52.480;13.422;2023-07-20T15:24:06;23.80;76.30
3492;DHT22;1760;52.480;13.422;2023-07-20T15:26:33;24.10;75.70
3492;DHT22;1760;52.480;13.422;2023-07-20T15:31:30;26.00;73.20
3492;DHT22;1760;52.480;13.422;2023-07-20T15:33:58;24.10;96.40
3492;DHT22;1760;52.480;13.422;2023-07-20T15:36:25;24.10;72.10
3492;DHT22;1760;52.480;13.422;2023-07-20T15:38:51;23.90;72.10
3492;DHT22;1760;52.480;13.422;2023-07-20T15:41:18;23.80;88.30
3492;DHT22;1760;52.480;13.422;2023-07-20T15:43:45;23.70;71.90
3492;DHT22;1760;52.480;13.422;2023-07-20T15:46:44;23.40;95.90
3492;DHT22;1760;52.480;13.422;2023-07-20T15:49:12;23.40;95.80
3492;DHT22;1760;52.480;13.422;2023-07-20T15:54:08;23.40;96.40
3492;DHT22;1760;52.480;13.422;2023-07-20T15:56:36;23.40;72.70
3492;DHT22;1760;52.480;13.422;2023-07-20T15:59:03;23.50;97.30
3492;DHT22;1760;52.480;13.422;2023-07-20T16:01:30;23.60;98.70
3492;DHT22;1760;52.480;13.422;2023-07-20T16:03:58;23.60;76.20
3492;DHT22;1760;52.480;13.422;2023-07-20T16:06:27;23.60;97.90
3492;DHT22;1760;52.480;13.422;2023-07-20T16:08:54;23.20;97.50
3492;DHT22;1760;52.480;13.422;2023-07-20T16:13:49;23.20;75.40
3492;DHT22;1760;52.480;13.422;2023-07-20T16:16:16;23.10;97.00
3492;DHT22;1760;52.480;13.422;2023-07-20T16:18:43;23.00;74.80
3492;DHT22;1760;52.480;13.422;2023-07-20T16:23:39;22.60;98.40
3492;DHT22;1760;52.480;13.422;2023-07-20T16:26:06;22.70;77.80
3492;DHT22;1760;52.480;13.422;2023-07-20T16:28:33;22.80;97.40
3492;DHT22;1760;52.480;13.422;2023-07-20T16:31:00;22.70;99.90
3492;DHT22;1760;52.480;13.422;2023-07-20T16:33:30;22.70;77.80
3492;DHT22;1760;52.480;13.422;2023-07-20T16:38:24;22.70;99.30
3492;DHT22;1760;52.480;13.422;2023-07-20T16:40:55;22.90;99.10
3492;DHT22;1760;52.480;13.422;2023-07-20T16:43:22;23.00;95.20
3492;DHT22;1760;52.480;13.422;2023-07-20T16:45:49;22.70;77.30
3492;DHT22;1760;52.480;13.422;2023-07-20T16:48:16;22.50;95.60
3492;DHT22;1760;52.480;13.422;2023-07-20T16:53:11;22.30;98.60
3492;DHT22;1760;52.480;13.422;2023-07-20T16:55:37;22.80;99.00
3492;DHT22;1760;52.480;13.422;2023-07-20T16:58:09;22.20;94.90
3492;DHT22;1760;52.480;13.422;2023-07-20T17:00:36;22.20;99.00
3492;DHT22;1760;52.480;13.422;2023-07-20T17:03:04;22.20;96.40
3492;DHT22;1760;52.480;13.422;2023-07-20T17:10:25;21.70;97.10
3492;DHT22;1760;52.480;13.422;2023-07-20T17:15:22;22.20;81.80
3492;DHT22;1760;52.480;13.422;2023-07-20T17:17:52;22.30;97.80
3492;DHT22;1760;52.480;13.422;2023-07-20T17:22:49;22.10;82.50
3492;DHT22;1760;52.480;13.422;2023-07-20T17:27:43;21.90;99.90
3492;DHT22;1760;52.480;13.422;2023-07-20T17:30:10;21.80;99.40
3492;DHT22;1760;52.480;13.422;2023-07-20T17:32:39;21.80;99.90
3492;DHT22;1760;52.480;13.422;2023-07-20T17:35:07;22.00;98.70
3492;DHT22;1760;52.480;13.422;2023-07-20T17:37:35;21.60;99.90
3492;DHT22;1760;52.480;13.422;2023-07-20T17:40:08;21.80;99.90
3492;DHT22;1760;52.480;13.422;2023-07-20T17:42:36;21.60;99.70
3492;DHT22;1760;52.480;13.422;2023-07-20T17:45:03;21.20;99.90
3492;DHT22;1760;52.480;13.422;2023-07-20T17:47:30;21.70;99.90
3492;DHT22;1760;52.480;13.422;2023-07-20T17:49:59;21.50;87.90
3492;DHT22;1760;52.480;13.422;2023-07-20T17:54:53;21.10;99.90
3492;DHT22;1760;52.480;13.422;2023-07-20T17:57:20;21.30;99.90
3492;DHT22;1760;52.480;13.422;2023-07-20T17:59:47;21.10;91.90
3492;DHT22;1760;52.480;13.422;2023-07-20T18:02:14;21.00;99.90
3492;DHT22;1760;52.480;13.422;2023-07-20T18:04:40;21.00;99.90
3492;DHT22;1760;52.480;13.422;2023-07-20T18:07:09;21.10;99.90
3492;DHT22;1760;52.480;13.422;2023-07-20T18:09:36;20.80;99.90
3492;DHT22;1760;52.480;13.422;2023-07-20T18:12:03;20.80;99.90
3492;DHT22;1760;52.480;13.422;2023-07-20T18:14:30;20.80;99.90
3492;DHT22;1760;52.480;13.422;2023-07-20T18:16:56;20.60;99.90
3492;DHT22;1760;52.480;13.422;2023-07-20T18:19:23;20.80;99.80
3492;DHT22;1760;52.480;13.422;2023-07-20T18:24:21;20.80;85.30
3492;DHT22;1760;52.480;13.422;2023-07-20T18:26:48;20.80;86.50
3492;DHT22;1760;52.480;13.422;2023-07-20T18:29:15;20.60;88.20
3492;DHT22;1760;52.480;13.422;2023-07-20T18:31:42;20.60;99.90
3492;DHT22;1760;52.480;13.422;2023-07-20T18:34:09;20.50;88.70
3492;DHT22;1760;52.480;13.422;2023-07-20T18:36:38;20.40;89.00
3492;DHT22;1760;52.480;13.422;2023-07-20T18:39:04;20.50;99.90
3492;DHT22;1760;52.480;13.422;2023-07-20T18:41:33;20.30;99.90